sensor_id;sensor_type;location;lat;lon;timestamp;pressure;altitude;pressure_sealevel;temperature;humidity
60061;BME280;45933;51.336;12.612;2023-07-31T00:00:30;99532.31;;;17.32;60.38
60061;BME280;45933;51.336;12.612;2023-07-31T00:02:55;99534.09;;;17.32;60.23
60061;BME280;45933;51.336;12.612;2023-07-31T00:05:21;99531.53;;;17.30;60.41
60061;BME280;45933;51.336;12.612;2023-07-31T00:07:46;99527.16;;;17.29;60.52
60061;BME280;45933;51.336;12.612;2023-07-31T00:10:12;99529.75;;;17.31;60.69
60061;BME280;45933;51.336;12.612;2023-07-31T00:12:39;99528.22;;;17.25;60.62
60061;BME280;45933;51.336;12.612;2023-07-31T00:15:06;99525.44;;;17.28;60.78
60061;BME280;45933;51.336;12.612;2023-07-31T00:17:32;99518.34;;;17.30;60.46
60061;BME280;45933;51.336;12.612;2023-07-31T00:19:57;99514.06;;;17.28;60.45
60061;BME280;45933;51.336;12.612;2023-07-31T00:22:22;99521.09;;;17.27;60.26
60061;BME280;45933;51.336;12.612;2023-07-31T00:24:47;99521.19;;;17.25;60.42
60061;BME280;45933;51.336;12.612;2023-07-31T00:27:13;99516.69;;;17.28;nan
60061;BME280;45933;51.336;12.612;2023-07-31T00:29:38;99516.28;;;17.16;60.78
60061;BME280;45933;51.336;12.612;2023-07-31T00:32:04;99517.63;;;17.27;60.62
60061;BME280;45933;51.336;12.612;2023-07-31T00:34:29;99510.63;;;17.25;60.10
60061;BME280;45933;51.336;12.612;2023-07-31T00:36:54;99513.19;;;17.27;60.10
60061;BME280;45933;51.336;12.612;2023-07-31T00:39:20;99500.03;;;17.27;60.23
60061;BME280;45933;51.336;12.612;2023-07-31T00:41:45;99503.31;;;17.32;60.13
60061;BME280;45933;51.336;12.612;2023-07-31T00:44:10;99511.34;;;17.29;60.06
60061;BME280;45933;51.336;12.612;2023-07-31T00:46:36;99498.13;;;17.31;60.13
60061;BME280;45933;51.336;12.612;2023-07-31T00:49:02;99505.28;;;17.27;60.04
60061;BME280;45933;51.336;12.612;2023-07-31T00:51:27;99506.53;;;17.18;60.14
60061;BME280;45933;51.336;12.612;2023-07-31T00:53:53;99496.66;;;17.23;59.84
60061;BME280;45933;51.336;12.612;2023-07-31T00:56:19;99496.34;;;17.31;59.53
60061;BME280;45933;51.336;12.612;2023-07-31T00:58:44;99493.72;;;17.31;59.53
60061;BME280;45933;51.336;12.612;2023-07-31T01:01:10;99493.44;;;17.37;59.52
60061;BME280;45933;51.336;12.612;2023-07-31T01:03:35;99494.97;;;17.43;58.92
60061;BME280;45933;51.336;12.612;2023-07-31T01:06:13;99494.31;;;17.38;59.18
60061;BME280;45933;51.336;12.612;2023-07-31T01:08:44;99485.44;;;17.40;59.10
60061;BME280;45933;51.336;12.612;2023-07-31T01:11:17;99487.84;;;17.45;58.61
60061;BME280;45933;51.336;12.612;2023-07-31T01:13:46;99485.16;;;17.46;58.92
60061;BME280;45933;51.336;12.612;2023-07-31T01:16:12;99477.97;;;17.50;58.77
60061;BME280;45933;51.336;12.612;2023-07-31T01:18:37;99475.94;;;17.57;58.53
60061;BME280;45933;51.336;12.612;2023-07-31T01:21:21;99474.06;;;17.59;58.68
60061;BME280;45933;51.336;12.612;2023-07-31T01:26:30;99473.88;;;17.63;58.24
60061;BME280;45933;51.336;12.612;2023-07-31T01:29:23;99476.91;;;17.74;57.94
60061;BME280;45933;51.336;12.612;2023-07-31T01:31:49;99481.59;;;17.68;58.15
60061;BME280;45933;51.336;12.612;2023-07-31T01:34:17;99464.84;;;17.69;58.07
60061;BME280;45933;51.336;12.612;2023-07-31T01:36:43;99466.63;;;17.68;57.88
60061;BME280;45933;51.336;12.612;2023-07-31T01:39:08;99459.13;;;17.59;57.83
60061;BME280;45933;51.336;12.612;2023-07-31T01:41:34;99463.91;;;17.70;57.65
60061;BME280;45933;51.336;12.612;2023-07-31T01:44:00;99456.81;;;17.72;57.90
60061;BME280;45933;51.336;12.612;2023-07-31T01:46:25;99454.13;;;17.73;57.72
60061;BME280;45933;51.336;12.612;2023-07-31T01:48:50;99456.00;;;17.70;57.83
60061;BME280;45933;51.336;12.612;2023-07-31T01:51:16;99452.44;;;17.71;57.78
60061;BME280;45933;51.336;12.612;2023-07-31T01:53:41;99460.34;;;17.72;58.02
60061;BME280;45933;51.336;12.612;2023-07-31T01:56:06;99455.75;;;17.76;57.93
60061;BME280;45933;51.336;12.612;2023-07-31T01:58:32;99463.53;;;17.79;58.49
60061;BME280;45933;51.336;12.612;2023-07-31T02:00:57;99457.41;;;17.79;58.28
60061;BME280;45933;51.336;12.612;2023-07-31T02:03:22;99449.34;;;17.82;58.54
60061;BME280;45933;51.336;12.612;2023-07-31T02:05:48;99463.75;;;17.74;59.00
60061;BME280;45933;51.336;12.612;2023-07-31T02:08:14;99456.41;;;17.81;58.61
60061;BME280;45933;51.336;12.612;2023-07-31T02:10:40;99453.72;;;17.83;58.82
60061;BME280;45933;51.336;12.612;2023-07-31T02:13:05;99454.56;;;17.83;58.67
60061;BME280;45933;51.336;12.612;2023-07-31T02:15:31;99450.34;;;17.79;59.09
60061;BME280;45933;51.336;12.612;2023-07-31T02:17:57;99444.03;;;17.83;58.78
60061;BME280;45933;51.336;12.612;2023-07-31T02:20:22;99434.63;;;17.77;59.05
60061;BME280;45933;51.336;12.612;2023-07-31T02:22:47;99438.81;;;17.82;59.20
60061;BME280;45933;51.336;12.612;2023-07-31T02:25:13;99442.56;;;17.76;59.50
60061;BME280;45933;51.336;12.612;2023-07-31T02:27:38;99438.88;;;17.80;59.52
60061;BME280;45933;51.336;12.612;2023-07-31T02:30:04;99440.03;;;17.74;59.52
60061;BME280;45933;51.336;12.612;2023-07-31T02:32:29;99442.81;;;17.70;59.41
60061;BME280;45933;51.336;12.612;2023-07-31T02:34:54;99440.09;;;17.73;59.35
60061;BME280;45933;51.336;12.612;2023-07-31T02:37:20;99435.72;;;17.72;59.09
60061;BME280;45933;51.336;12.612;2023-07-31T02:39:45;99440.03;;;17.74;59.40
60061;BME280;45933;51.336;12.612;2023-07-31T02:42:10;99435.78;;;17.70;59.08
60061;BME280;45933;51.336;12.612;2023-07-31T02:44:36;99434.53;;;17.59;59.60
60061;BME280;45933;51.336;12.612;2023-07-31T02:47:01;99430.28;;;17.56;59.72
60061;BME280;45933;51.336;12.612;2023-07-31T02:49:28;99426.63;;;17.59;59.65
60061;BME280;45933;51.336;12.612;2023-07-31T02:51:53;99427.84;;;17.51;59.67
60061;BME280;45933;51.336;12.612;2023-07-31T02:54:18;99418.66;;;17.60;59.67
60061;BME280;45933;51.336;12.612;2023-07-31T02:56:45;99430.84;;;17.63;59.73
60061;BME280;45933;51.336;12.612;2023-07-31T02:59:11;99424.22;;;17.54;59.69
60061;BME280;45933;51.336;12.612;2023-07-31T03:01:36;99419.00;;;17.52;59.69
60061;BME280;45933;51.336;12.612;2023-07-31T03:04:01;99407.66;;;17.50;60.23
60061;BME280;45933;51.336;12.612;2023-07-31T03:06:26;99415.31;;;17.57;59.81
60061;BME280;45933;51.336;12.612;2023-07-31T03:08:52;99414.94;;;17.45;60.29
60061;BME280;45933;51.336;12.612;2023-07-31T03:11:18;99416.19;;;17.57;60.13
60061;BME280;45933;51.336;12.612;2023-07-31T03:13:43;99418.38;;;17.47;60.81
60061;BME280;45933;51.336;12.612;2023-07-31T03:16:08;99420.00;;;17.50;60.48
60061;BME280;45933;51.336;12.612;2023-07-31T03:18:34;99411.22;;;17.49;60.76
60061;BME280;45933;51.336;12.612;2023-07-31T03:20:59;99413.75;;;17.52;60.56
60061;BME280;45933;51.336;12.612;2023-07-31T03:23:24;99403.97;;;17.55;60.43
60061;BME280;45933;51.336;12.612;2023-07-31T03:25:58;99411.38;;;17.46;61.20
60061;BME280;45933;51.336;12.612;2023-07-31T03:28:24;99409.44;;;17.50;60.63
60061;BME280;45933;51.336;12.612;2023-07-31T03:30:49;99402.34;;;17.52;60.48
60061;BME280;45933;51.336;12.612;2023-07-31T03:33:14;99401.03;;;17.42;61.10
60061;BME280;45933;51.336;12.612;2023-07-31T03:35:40;99403.47;;;17.46;61.31
60061;BME280;45933;51.336;12.612;2023-07-31T03:38:05;99387.78;;;17.43;61.01
60061;BME280;45933;51.336;12.612;2023-07-31T03:40:30;99399.84;;;17.49;61.09
60061;BME280;45933;51.336;12.612;2023-07-31T03:42:56;99400.56;;;17.52;61.33
60061;BME280;45933;51.336;12.612;2023-07-31T03:45:21;99386.81;;;17.46;61.59
60061;BME280;45933;51.336;12.612;2023-07-31T03:47:46;99405.31;;;17.44;61.76
60061;BME280;45933;51.336;12.612;2023-07-31T03:50:11;99400.66;;;17.51;61.42
60061;BME280;45933;51.336;12.612;2023-07-31T03:52:37;99397.44;;;17.24;62.50
60061;BME280;45933;51.336;12.612;2023-07-31T03:55:02;99393.34;;;17.37;62.19
60061;BME280;45933;51.336;12.612;2023-07-31T03:57:28;99393.41;;;17.36;62.75
60061;BME280;45933;51.336;12.612;2023-07-31T03:59:53;99385.72;;;17.31;62.88
60061;BME280;45933;51.336;12.612;2023-07-31T04:02:18;99376.59;;;17.38;62.65
60061;BME280;45933;51.336;12.612;2023-07-31T04:04:44;99385.56;;;17.34;62.76
60061;BME280;45933;51.336;12.612;2023-07-31T04:07:09;99387.22;;;17.37;62.89
60061;BME280;45933;51.336;12.612;2023-07-31T04:09:34;99382.34;;;17.28;63.60
60061;BME280;45933;51.336;12.612;2023-07-31T04:11:59;99372.81;;;17.25;63.56
60061;BME280;45933;51.336;12.612;2023-07-31T04:14:25;99376.31;;;17.25;63.64
60061;BME280;45933;51.336;12.612;2023-07-31T04:16:50;99375.38;;;17.27;63.54
60061;BME280;45933;51.336;12.612;2023-07-31T04:19:15;99375.31;;;17.28;63.54
60061;BME280;45933;51.336;12.612;2023-07-31T04:21:42;99373.53;;;17.29;63.70
60061;BME280;45933;51.336;12.612;2023-07-31T04:24:07;99379.59;;;17.10;64.92
60061;BME280;45933;51.336;12.612;2023-07-31T04:26:32;99378.41;;;17.17;65.03
60061;BME280;45933;51.336;12.612;2023-07-31T04:28:58;99376.81;;;17.13;65.02
60061;BME280;45933;51.336;12.612;2023-07-31T04:31:23;99374.19;;;17.13;64.88
60061;BME280;45933;51.336;12.612;2023-07-31T04:33:48;99374.28;;;17.12;65.25
60061;BME280;45933;51.336;12.612;2023-07-31T04:36:13;99370.78;;;17.11;65.31
60061;BME280;45933;51.336;12.612;2023-07-31T04:38:39;99373.28;;;17.14;64.88
60061;BME280;45933;51.336;12.612;2023-07-31T04:41:06;99374.41;;;17.09;65.35
60061;BME280;45933;51.336;12.612;2023-07-31T04:43:31;99377.91;;;17.09;65.46
60061;BME280;45933;51.336;12.612;2023-07-31T04:45:56;99376.97;;;17.10;65.55
60061;BME280;45933;51.336;12.612;2023-07-31T04:48:23;99379.59;;;17.10;65.45
60061;BME280;45933;51.336;12.612;2023-07-31T04:50:48;99369.19;;;17.07;66.21
60061;BME280;45933;51.336;12.612;2023-07-31T04:53:14;99368.28;;;17.08;66.10
60061;BME280;45933;51.336;12.612;2023-07-31T04:55:39;99369.19;;;17.07;66.35
60061;BME280;45933;51.336;12.612;2023-07-31T04:58:04;99371.25;;;17.01;66.65
60061;BME280;45933;51.336;12.612;2023-07-31T05:00:30;99372.25;;;16.98;66.80
60061;BME280;45933;51.336;12.612;2023-07-31T05:02:55;99368.81;;;16.96;67.40
60061;BME280;45933;51.336;12.612;2023-07-31T05:05:20;99377.28;;;17.03;67.20
60061;BME280;45933;51.336;12.612;2023-07-31T05:07:46;99370.19;;;17.05;67.28
60061;BME280;45933;51.336;12.612;2023-07-31T05:10:11;99383.19;;;17.09;66.57
60061;BME280;45933;51.336;12.612;2023-07-31T05:12:36;99376.72;;;16.96;67.35
60061;BME280;45933;51.336;12.612;2023-07-31T05:15:02;99370.31;;;17.02;67.59
60061;BME280;45933;51.336;12.612;2023-07-31T05:17:27;99371.97;;;17.04;66.88
60061;BME280;45933;51.336;12.612;2023-07-31T05:19:52;99369.28;;;17.06;67.75
60061;BME280;45933;51.336;12.612;2023-07-31T05:22:18;99381.66;;;17.04;67.51
60061;BME280;45933;51.336;12.612;2023-07-31T05:24:43;99378.09;;;17.05;67.51
60061;BME280;45933;51.336;12.612;2023-07-31T05:27:08;99375.78;;;16.97;67.50
60061;BME280;45933;51.336;12.612;2023-07-31T05:29:35;99388.75;;;17.02;67.62
60061;BME280;45933;51.336;12.612;2023-07-31T05:32:00;99377.06;;;16.88;68.40
60061;BME280;45933;51.336;12.612;2023-07-31T05:34:25;99382.16;;;16.91;68.37
60061;BME280;45933;51.336;12.612;2023-07-31T05:36:51;99380.84;;;16.81;69.39
60061;BME280;45933;51.336;12.612;2023-07-31T05:39:16;99376.84;;;16.93;68.34
60061;BME280;45933;51.336;12.612;2023-07-31T05:41:41;99372.28;;;16.96;68.05
60061;BME280;45933;51.336;12.612;2023-07-31T05:44:06;99376.72;;;16.96;68.11
60061;BME280;45933;51.336;12.612;2023-07-31T05:46:32;99374.16;;;16.94;68.71
60061;BME280;45933;51.336;12.612;2023-07-31T05:48:58;99374.41;;;16.88;69.20
60061;BME280;45933;51.336;12.612;2023-07-31T05:51:26;99374.06;;;16.96;68.80
60061;BME280;45933;51.336;12.612;2023-07-31T05:53:51;99370.78;;;16.91;69.57
60061;BME280;45933;51.336;12.612;2023-07-31T05:56:16;99367.69;;;17.02;68.78
60061;BME280;45933;51.336;12.612;2023-07-31T05:58:42;99363.69;;;16.93;69.43
60061;BME280;45933;51.336;12.612;2023-07-31T06:01:07;99366.75;;;17.03;69.16
60061;BME280;45933;51.336;12.612;2023-07-31T06:03:32;99366.63;;;17.06;69.16
60061;BME280;45933;51.336;12.612;2023-07-31T06:05:57;99368.22;;;17.10;68.93
60061;BME280;45933;51.336;12.612;2023-07-31T06:08:23;99367.22;;;17.12;68.88
60061;BME280;45933;51.336;12.612;2023-07-31T06:10:48;99362.59;;;17.17;68.58
60061;BME280;45933;51.336;12.612;2023-07-31T06:13:13;99362.59;;;17.17;69.26
60061;BME280;45933;51.336;12.612;2023-07-31T06:15:39;99369.19;;;17.28;68.34
60061;BME280;45933;51.336;12.612;2023-07-31T06:18:04;99366.47;;;17.29;68.69
60061;BME280;45933;51.336;12.612;2023-07-31T06:20:33;99365.50;;;17.32;68.40
60061;BME280;45933;51.336;12.612;2023-07-31T06:22:58;99356.75;;;17.31;68.85
60061;BME280;45933;51.336;12.612;2023-07-31T06:25:24;99366.06;;;17.38;68.33
60061;BME280;45933;51.336;12.612;2023-07-31T06:27:49;99370.28;;;17.42;68.21
60061;BME280;45933;51.336;12.612;2023-07-31T06:30:14;99355.44;;;17.40;68.50
60061;BME280;45933;51.336;12.612;2023-07-31T06:32:40;99364.16;;;17.42;68.12
60061;BME280;45933;51.336;12.612;2023-07-31T06:35:06;99363.22;;;17.43;68.65
60061;BME280;45933;51.336;12.612;2023-07-31T06:37:31;99368.03;;;17.54;67.73
60061;BME280;45933;51.336;12.612;2023-07-31T06:39:57;99372.34;;;17.55;68.24
60061;BME280;45933;51.336;12.612;2023-07-31T06:42:22;99360.19;;;17.52;68.59
60061;BME280;45933;51.336;12.612;2023-07-31T06:44:47;99364.88;;;17.64;68.03
60061;BME280;45933;51.336;12.612;2023-07-31T06:47:13;99368.09;;;17.71;67.89
60061;BME280;45933;51.336;12.612;2023-07-31T06:49:38;99360.00;;;17.75;68.05
60061;BME280;45933;51.336;12.612;2023-07-31T06:52:03;99358.94;;;17.80;67.73
60061;BME280;45933;51.336;12.612;2023-07-31T06:54:29;99360.81;;;17.77;68.00
60061;BME280;45933;51.336;12.612;2023-07-31T06:56:54;99360.31;;;17.88;67.49
60061;BME280;45933;51.336;12.612;2023-07-31T06:59:19;99365.28;;;17.94;67.25
60061;BME280;45933;51.336;12.612;2023-07-31T07:01:45;99359.09;;;17.95;67.17
60061;BME280;45933;51.336;12.612;2023-07-31T07:04:10;99353.44;;;18.03;66.92
60061;BME280;45933;51.336;12.612;2023-07-31T07:06:36;99364.16;;;18.00;67.08
60061;BME280;45933;51.336;12.612;2023-07-31T07:09:01;99366.56;;;18.05;67.16
60061;BME280;45933;51.336;12.612;2023-07-31T07:11:26;99356.03;;;18.05;66.91
60061;BME280;45933;51.336;12.612;2023-07-31T07:13:52;99361.00;;;18.11;66.80
60061;BME280;45933;51.336;12.612;2023-07-31T07:16:17;99363.41;;;18.15;66.46
60061;BME280;45933;51.336;12.612;2023-07-31T07:18:42;99364.28;;;18.16;66.05
60061;BME280;45933;51.336;12.612;2023-07-31T07:21:07;99366.06;;;18.15;66.43
60061;BME280;45933;51.336;12.612;2023-07-31T07:23:33;99367.63;;;18.19;66.18
60061;BME280;45933;51.336;12.612;2023-07-31T07:25:59;99366.59;;;18.22;65.81
60061;BME280;45933;51.336;12.612;2023-07-31T07:28:24;99366.47;;;18.25;65.71
60061;BME280;45933;51.336;12.612;2023-07-31T07:30:52;99349.84;;;18.23;65.60
60061;BME280;45933;51.336;12.612;2023-07-31T07:33:20;99362.91;;;18.26;65.40
60061;BME280;45933;51.336;12.612;2023-07-31T07:35:45;99359.19;;;18.30;65.45
60061;BME280;45933;51.336;12.612;2023-07-31T07:38:11;99356.31;;;18.35;64.69
60061;BME280;45933;51.336;12.612;2023-07-31T07:40:39;99344.91;;;18.34;64.90
60061;BME280;45933;51.336;12.612;2023-07-31T07:43:05;99359.97;;;18.32;64.63
60061;BME280;45933;51.336;12.612;2023-07-31T07:45:30;99358.66;;;18.41;64.91
60061;BME280;45933;51.336;12.612;2023-07-31T07:47:55;99357.09;;;18.37;64.73
60061;BME280;45933;51.336;12.612;2023-07-31T07:50:21;99363.00;;;18.42;64.19
60061;BME280;45933;51.336;12.612;2023-07-31T07:52:46;99355.78;;;18.45;64.53
60061;BME280;45933;51.336;12.612;2023-07-31T07:55:11;99348.44;;;18.52;64.21
60061;BME280;45933;51.336;12.612;2023-07-31T07:57:37;99353.75;;;18.50;64.21
60061;BME280;45933;51.336;12.612;2023-07-31T08:00:02;99342.84;;;18.58;63.74
60061;BME280;45933;51.336;12.612;2023-07-31T08:02:28;99344.13;;;18.68;63.25
60061;BME280;45933;51.336;12.612;2023-07-31T08:04:53;99338.09;;;18.65;63.24
60061;BME280;45933;51.336;12.612;2023-07-31T08:07:18;99351.41;;;18.80;63.27
60061;BME280;45933;51.336;12.612;2023-07-31T08:09:44;99340.53;;;18.87;63.49
60061;BME280;45933;51.336;12.612;2023-07-31T08:12:09;99347.28;;;18.92;63.08
60061;BME280;45933;51.336;12.612;2023-07-31T08:14:34;99343.09;;;19.05;62.94
60061;BME280;45933;51.336;12.612;2023-07-31T08:17:01;99337.63;;;19.08;62.46
60061;BME280;45933;51.336;12.612;2023-07-31T08:19:27;99341.16;;;19.09;61.83
60061;BME280;45933;51.336;12.612;2023-07-31T08:21:52;99343.22;;;19.20;61.77
60061;BME280;45933;51.336;12.612;2023-07-31T08:24:17;99342.09;;;19.24;61.87
60061;BME280;45933;51.336;12.612;2023-07-31T08:26:42;99338.47;;;19.26;60.64
60061;BME280;45933;51.336;12.612;2023-07-31T08:29:08;99331.06;;;19.33;61.04
60061;BME280;45933;51.336;12.612;2023-07-31T08:31:33;99340.69;;;19.34;60.39
60061;BME280;45933;51.336;12.612;2023-07-31T08:34:00;99341.53;;;19.34;60.30
60061;BME280;45933;51.336;12.612;2023-07-31T08:36:25;99346.56;;;19.39;60.44
60061;BME280;45933;51.336;12.612;2023-07-31T08:38:50;99340.44;;;19.39;59.91
60061;BME280;45933;51.336;12.612;2023-07-31T08:41:16;99352.41;;;19.46;60.33
60061;BME280;45933;51.336;12.612;2023-07-31T08:43:46;99344.72;;;19.41;59.81
60061;BME280;45933;51.336;12.612;2023-07-31T08:46:12;99349.06;;;19.42;59.59
60061;BME280;45933;51.336;12.612;2023-07-31T08:48:41;99335.63;;;19.47;59.64
60061;BME280;45933;51.336;12.612;2023-07-31T08:51:07;99329.47;;;19.46;59.87
60061;BME280;45933;51.336;12.612;2023-07-31T08:53:32;99327.69;;;19.47;59.95
60061;BME280;45933;51.336;12.612;2023-07-31T08:55:59;99327.59;;;19.48;59.94
60061;BME280;45933;51.336;12.612;2023-07-31T08:58:25;99335.03;;;19.57;59.74
60061;BME280;45933;51.336;12.612;2023-07-31T09:00:53;99332.00;;;19.65;59.23
60061;BME280;45933;51.336;12.612;2023-07-31T09:03:21;99341.47;;;19.69;58.82
60061;BME280;45933;51.336;12.612;2023-07-31T09:05:48;99344.88;;;19.71;58.60
60061;BME280;45933;51.336;12.612;2023-07-31T09:08:18;99349.91;;;19.76;58.45
60061;BME280;45933;51.336;12.612;2023-07-31T09:10:45;99343.88;;;19.74;58.43
60061;BME280;45933;51.336;12.612;2023-07-31T09:13:15;99335.69;;;19.78;58.38
60061;BME280;45933;51.336;12.612;2023-07-31T09:15:43;99335.69;;;19.94;57.74
60061;BME280;45933;51.336;12.612;2023-07-31T09:18:09;99341.13;;;19.91;57.88
60061;BME280;45933;51.336;12.612;2023-07-31T09:20:35;99349.66;;;19.96;57.54
60061;BME280;45933;51.336;12.612;2023-07-31T09:23:11;99343.88;;;20.05;57.25
60061;BME280;45933;51.336;12.612;2023-07-31T09:25:37;99354.00;;;19.97;56.87
60061;BME280;45933;51.336;12.612;2023-07-31T09:28:05;99360.69;;;20.04;56.98
60061;BME280;45933;51.336;12.612;2023-07-31T09:30:44;99355.31;;;20.06;56.06
60061;BME280;45933;51.336;12.612;2023-07-31T09:33:09;99354.19;;;20.10;56.32
60061;BME280;45933;51.336;12.612;2023-07-31T09:35:35;99365.72;;;20.09;56.58
60061;BME280;45933;51.336;12.612;2023-07-31T09:38:05;99362.47;;;20.04;56.97
60061;BME280;45933;51.336;12.612;2023-07-31T09:40:32;99355.72;;;20.14;56.89
60061;BME280;45933;51.336;12.612;2023-07-31T09:43:09;99355.53;;;20.17;57.18
60061;BME280;45933;51.336;12.612;2023-07-31T09:45:40;99338.38;;;20.08;56.88
60061;BME280;45933;51.336;12.612;2023-07-31T09:48:10;99344.13;;;20.17;57.34
60061;BME280;45933;51.336;12.612;2023-07-31T09:50:40;99334.38;;;20.17;57.04
60061;BME280;45933;51.336;12.612;2023-07-31T09:53:07;99330.63;;;20.21;57.48
60061;BME280;45933;51.336;12.612;2023-07-31T09:55:34;99330.44;;;20.24;57.11
60061;BME280;45933;51.336;12.612;2023-07-31T09:58:03;99325.72;;;20.29;57.31
60061;BME280;45933;51.336;12.612;2023-07-31T10:00:29;99319.59;;;20.29;57.78
60061;BME280;45933;51.336;12.612;2023-07-31T10:02:58;99325.03;;;20.42;57.31
60061;BME280;45933;51.336;12.612;2023-07-31T10:05:36;99325.69;;;20.45;56.93
60061;BME280;45933;51.336;12.612;2023-07-31T10:08:02;99314.72;;;20.53;57.24
60061;BME280;45933;51.336;12.612;2023-07-31T10:10:28;99318.38;;;20.50;56.70
60061;BME280;45933;51.336;12.612;2023-07-31T10:12:55;99320.97;;;20.52;56.57
60061;BME280;45933;51.336;12.612;2023-07-31T10:15:21;99322.38;;;20.57;56.23
60061;BME280;45933;51.336;12.612;2023-07-31T10:17:48;99324.09;;;20.58;56.15
60061;BME280;45933;51.336;12.612;2023-07-31T10:20:15;99309.53;;;20.66;56.95
60061;BME280;45933;51.336;12.612;2023-07-31T10:22:42;99313.81;;;20.68;57.39
60061;BME280;45933;51.336;12.612;2023-07-31T10:25:08;99310.03;;;20.72;58.52
60061;BME280;45933;51.336;12.612;2023-07-31T10:27:35;99313.59;;;20.71;58.19
60061;BME280;45933;51.336;12.612;2023-07-31T10:30:03;99323.84;;;20.77;58.16
60061;BME280;45933;51.336;12.612;2023-07-31T10:32:30;99327.63;;;20.73;56.86
60061;BME280;45933;51.336;12.612;2023-07-31T10:34:55;99302.47;;;20.80;57.16
60061;BME280;45933;51.336;12.612;2023-07-31T10:37:28;99300.69;;;20.95;57.39
60061;BME280;45933;51.336;12.612;2023-07-31T10:40:00;99295.97;;;21.00;58.26
60061;BME280;45933;51.336;12.612;2023-07-31T10:42:37;99298.53;;;21.16;57.13
60061;BME280;45933;51.336;12.612;2023-07-31T10:45:08;99287.09;;;21.15;55.82
60061;BME280;45933;51.336;12.612;2023-07-31T10:47:45;99289.25;;;21.23;55.71
60061;BME280;45933;51.336;12.612;2023-07-31T10:50:19;99288.63;;;21.34;55.71
60061;BME280;45933;51.336;12.612;2023-07-31T10:52:53;99281.69;;;21.46;56.15
60061;BME280;45933;51.336;12.612;2023-07-31T10:57:49;99277.16;;;21.62;55.80
60061;BME280;45933;51.336;12.612;2023-07-31T11:00:22;99280.53;;;21.64;55.39
60061;BME280;45933;51.336;12.612;2023-07-31T11:02:57;99267.88;;;21.82;55.39
60061;BME280;45933;51.336;12.612;2023-07-31T11:05:53;99270.00;;;22.04;55.34
60061;BME280;45933;51.336;12.612;2023-07-31T11:08:24;99267.75;;;21.98;54.57
60061;BME280;45933;51.336;12.612;2023-07-31T11:13:30;99264.38;;;22.23;53.88
60061;BME280;45933;51.336;12.612;2023-07-31T11:15:56;99258.94;;;22.24;53.34
60061;BME280;45933;51.336;12.612;2023-07-31T11:18:21;99248.38;;;22.37;53.83
60061;BME280;45933;51.336;12.612;2023-07-31T11:20:47;99240.41;;;22.50;53.99
60061;BME280;45933;51.336;12.612;2023-07-31T11:23:12;99239.38;;;22.52;52.32
60061;BME280;45933;51.336;12.612;2023-07-31T11:25:39;99222.38;;;22.67;52.41
60061;BME280;45933;51.336;12.612;2023-07-31T11:28:13;99226.84;;;22.80;51.58
60061;BME280;45933;51.336;12.612;2023-07-31T11:30:40;99227.06;;;23.02;51.64
60061;BME280;45933;51.336;12.612;2023-07-31T11:33:07;99218.66;;;23.08;51.47
60061;BME280;45933;51.336;12.612;2023-07-31T11:35:41;99224.16;;;23.31;51.66
60061;BME280;45933;51.336;12.612;2023-07-31T11:38:11;99221.06;;;23.37;49.21
60061;BME280;45933;51.336;12.612;2023-07-31T11:40:43;99213.94;;;23.61;49.86
60061;BME280;45933;51.336;12.612;2023-07-31T11:43:09;99221.06;;;23.73;49.47
60061;BME280;45933;51.336;12.612;2023-07-31T11:45:38;99228.72;;;23.78;49.02
60061;BME280;45933;51.336;12.612;2023-07-31T11:48:05;99207.03;;;23.95;49.35
60061;BME280;45933;51.336;12.612;2023-07-31T11:50:33;99210.41;;;23.97;47.57
60061;BME280;45933;51.336;12.612;2023-07-31T11:53:03;99212.00;;;24.00;47.47
60061;BME280;45933;51.336;12.612;2023-07-31T11:55:32;99206.47;;;24.14;47.80
60061;BME280;45933;51.336;12.612;2023-07-31T11:58:01;99198.97;;;24.08;47.50
60061;BME280;45933;51.336;12.612;2023-07-31T12:00:35;99207.22;;;24.16;47.54
60061;BME280;45933;51.336;12.612;2023-07-31T12:03:01;99197.88;;;24.11;47.37
60061;BME280;45933;51.336;12.612;2023-07-31T12:05:26;99202.75;;;23.93;47.59
60061;BME280;45933;51.336;12.612;2023-07-31T12:07:54;99200.09;;;23.93;47.57
60061;BME280;45933;51.336;12.612;2023-07-31T12:10:35;99210.88;;;23.91;47.19
60061;BME280;45933;51.336;12.612;2023-07-31T12:13:12;99203.34;;;23.85;47.76
60061;BME280;45933;51.336;12.612;2023-07-31T12:15:45;99205.75;;;23.88;48.10
60061;BME280;45933;51.336;12.612;2023-07-31T12:18:15;99200.69;;;23.85;48.40
60061;BME280;45933;51.336;12.612;2023-07-31T12:20:48;99205.66;;;23.66;48.44
60061;BME280;45933;51.336;12.612;2023-07-31T12:23:22;99199.38;;;23.67;48.41
60061;BME280;45933;51.336;12.612;2023-07-31T12:26:15;99214.41;;;23.68;48.20
60061;BME280;45933;51.336;12.612;2023-07-31T12:31:09;99190.59;;;23.78;48.75
60061;BME280;45933;51.336;12.612;2023-07-31T12:33:36;99194.16;;;23.65;48.69
60061;BME280;45933;51.336;12.612;2023-07-31T12:36:04;99186.91;;;23.67;47.96
60061;BME280;45933;51.336;12.612;2023-07-31T12:38:30;99180.53;;;23.70;48.18
60061;BME280;45933;51.336;12.612;2023-07-31T12:40:55;99179.47;;;23.60;47.75
60061;BME280;45933;51.336;12.612;2023-07-31T12:43:20;99175.25;;;23.57;47.77
60061;BME280;45933;51.336;12.612;2023-07-31T12:45:46;99178.41;;;23.62;47.69
60061;BME280;45933;51.336;12.612;2023-07-31T12:48:12;99177.16;;;23.68;48.86
60061;BME280;45933;51.336;12.612;2023-07-31T12:50:38;99182.09;;;23.72;47.85
60061;BME280;45933;51.336;12.612;2023-07-31T12:53:04;99172.22;;;23.74;47.48
60061;BME280;45933;51.336;12.612;2023-07-31T12:55:29;99169.97;;;23.92;48.50
60061;BME280;45933;51.336;12.612;2023-07-31T12:57:55;99169.25;;;23.90;48.36